Tropical Cyclones
[Index]
Main Index Home Page Stock Weather Photos Extreme Storms Discussion Storm News and Storm Chasing Reports Tropical Cyclones / Hurricanes / Typhoons Weather Data and Links Wild Fires / Bushfires Weather Observation Techniques Weather Picture Catalogue Tornado Pictures and Reports Stock Video Footage and DVDs for sale
Season 1990-1991 Tropical Cyclone JOY Track Map
Season 1990-1991 Summaries: [BoM-AU] [JTWC-AU] [JTWC-SIO] [JTWC-SPAC] [JTWC-SH]
<<- Previous TC | BoM 1990-1991 Season | Next TC ->>

click for intensity scale information  Lat/long Grid: Show Hide

 Date Labels: Show Hide

Bureau of Meteorology Tropical Cyclone Data

Name: JOY
Number: 734 / 199091_02

18 Dec 1990 00:00 UTC to 27 Dec 1990 01:00 UTC

    date/time    lat    long    hPa   cat  kts
1990-12-18 00   11.5   158.0    998         35          
1990-12-18 06   12.1   157.2    998         35          
1990-12-18 12   12.7   156.3    995    1    35          
1990-12-18 18   13.1   155.1    995    1    35          
1990-12-19 00   12.3   153.3    990    1    35          
1990-12-19 06   12.3   152.7    985    2    41          
1990-12-19 12   12.5   152.5    985    2    41          
1990-12-19 18   12.5   151.6    985    2    41          
1990-12-20 00   12.5   151.0    970    3    51          
1990-12-20 06   12.6   150.6    970    3    60          
1990-12-20 12   12.8   150.1    970    3    60          
1990-12-20 18   13.0   149.6    970    3    60          
1990-12-21 00   13.3   149.1    970    3    60          
1990-12-21 06   13.8   148.8    970    3    66          
1990-12-21 12   14.3   148.4    965    3    70          
1990-12-21 18   14.6   148.1    965    3    70          
1990-12-22 00   15.0   147.6    960    3    76          
1990-12-22 06   15.2   147.4    955    4    80          
1990-12-22 12   15.5   147.2    950    4    86          
1990-12-22 18   16.0   146.9    945    4    86          
1990-12-23 00   16.0   146.7    940    4    89          
1990-12-23 06   16.3   146.7    940    4    89          
1990-12-23 12   16.2   146.6    940    4    89          
1990-12-23 18   16.3   146.8    940    4    89          
1990-12-24 00   16.7   146.7    950    4    86          
1990-12-24 06   16.7   146.9    950    4    86          
1990-12-24 12   16.7   147.2    955    4    76          
1990-12-24 18   16.9   147.2    970    3    66          
1990-12-25 00   17.0   147.5    975    2    54          
1990-12-25 06   17.2   147.8    980    2    54          
1990-12-25 12   17.3   147.9    980    2    54          
1990-12-25 18   17.8   147.9    980    2    54          
1990-12-26 00   18.3   147.9    980    2    51          
1990-12-26 06   19.3   147.6    983    2                
1990-12-26 12   19.2   147.1    990    1    41          
1990-12-26 18   19.3   146.6    992    1    41          
1990-12-27 01   20.0   146.7    999         33          
Winds are 10-min average.

Tropical cyclone tracks developed by Michael Bath using data from the Bureau of Meteorology and Google Maps.


[Australian Severe Weather index] [Copyright Notice] [Email Contacts] [Search This Site] [Privacy Policy]
Document: tropical_cyclone_joy.htm Updated: 30 May 2013